Time;durP1;ratioP1;P1;durP2;ratioP2;P2;SDS_P1;SDS_P2;PMS_P1;PMS_P2;Temp;Humidity;BMP_temperature;BMP_pressure;BME280_temperature;BME280_humidity;BME280_pressure;Samples;Min_cycle;Max_cycle;Signal;HPM_P1;HPM_P2
2022/04/06 00:01:33;;;;;;;2.65;1.00;;;17.40;90.90;;;;;;5098884;27;45491;-77
2022/04/06 00:04:00;;;;;;;2.58;0.98;;;17.40;91.20;;;;;;5103860;27;46431;-77
2022/04/06 00:06:26;;;;;;;2.33;1.15;;;17.40;91.00;;;;;;5107352;27;45490;-77
2022/04/06 00:08:55;;;;;;;4.72;1.52;;;17.40;90.20;;;;;;5101692;27;45255;-77
2022/04/06 00:11:21;;;;;;;4.20;1.70;;;17.40;90.30;;;;;;5103523;27;45131;-77
2022/04/06 00:13:48;;;;;;;5.03;1.40;;;17.40;90.80;;;;;;5104923;27;47376;-77
2022/04/06 00:16:15;;;;;;;2.83;1.23;;;17.40;90.40;;;;;;5105291;27;45219;-77
2022/04/06 00:18:42;;;;;;;3.03;1.05;;;17.40;91.10;;;;;;5102286;27;45389;-77
2022/04/06 00:21:09;;;;;;;1.67;1.08;;;17.40;90.90;;;;;;5107286;27;46276;-77
2022/04/06 00:23:36;;;;;;;3.17;1.10;;;17.40;91.00;;;;;;5102953;27;45282;-77
2022/04/06 00:26:04;;;;;;;1.95;1.10;;;17.40;91.10;;;;;;5106349;27;45661;-77
2022/04/06 00:28:31;;;;;;;3.20;1.27;;;17.50;91.10;;;;;;5100136;27;45305;-76
2022/04/06 00:30:58;;;;;;;1.88;1.35;;;17.50;91.00;;;;;;5103498;27;45261;-77
2022/04/06 00:33:25;;;;;;;4.68;1.15;;;17.50;90.40;;;;;;5103685;27;47703;-77
2022/04/06 00:35:52;;;;;;;2.55;1.27;;;17.50;90.90;;;;;;5105643;27;45508;-77
2022/04/06 00:38:19;;;;;;;2.35;1.00;;;17.50;91.00;;;;;;5104518;27;45180;-77
2022/04/06 00:40:46;;;;;;;3.35;1.40;;;17.50;90.90;;;;;;5102223;27;45396;-77
2022/04/06 00:43:15;;;;;;;3.85;1.30;;;17.50;90.90;;;;;;5106250;27;46641;-77
2022/04/06 00:45:43;;;;;;;1.77;1.20;;;17.50;90.50;;;;;;5104508;27;45199;-77
2022/04/06 00:48:11;;;;;;;2.53;1.00;;;17.40;90.60;;;;;;5104341;27;45405;-77
2022/04/06 00:50:39;;;;;;;3.42;1.30;;;17.40;90.60;;;;;;5108855;27;45277;-77
2022/04/06 00:53:06;;;;;;;3.42;1.08;;;17.40;90.00;;;;;;5106652;27;45236;-77
2022/04/06 00:55:35;;;;;;;3.05;1.10;;;17.40;90.00;;;;;;5107601;27;45368;-77
2022/04/06 00:58:02;;;;;;;2.10;1.00;;;17.40;90.30;;;;;;5108748;27;45415;-77
2022/04/06 01:00:31;;;;;;;3.78;1.10;;;17.40;90.10;;;;;;5108462;27;45480;-77
2022/04/06 01:02:58;;;;;;;3.33;1.38;;;17.40;89.90;;;;;;5104343;27;47934;-78
2022/04/06 01:05:26;;;;;;;2.30;1.35;;;17.40;88.80;;;;;;5109742;27;45346;-77
2022/04/06 01:07:55;;;;;;;4.45;1.20;;;17.40;89.40;;;;;;5110183;27;45338;-77
2022/04/06 01:10:22;;;;;;;1.77;0.82;;;17.40;88.80;;;;;;5102803;27;45240;-77
2022/04/06 01:12:50;;;;;;;4.00;1.17;;;17.40;90.50;;;;;;5107970;27;45172;-77
2022/04/06 01:15:18;;;;;;;1.83;0.90;;;17.40;90.90;;;;;;5109406;27;45224;-78
2022/04/06 01:17:46;;;;;;;2.40;0.80;;;17.40;90.60;;;;;;5106737;27;45649;-77
2022/04/06 01:20:14;;;;;;;2.58;1.00;;;17.40;90.10;;;;;;5105587;27;45280;-77
2022/04/06 01:22:42;;;;;;;2.17;1.08;;;17.50;90.60;;;;;;5110005;27;45239;-77
2022/04/06 01:25:10;;;;;;;2.38;0.90;;;17.50;90.10;;;;;;5107880;27;45165;-78
2022/04/06 01:27:36;;;;;;;0.73;0.60;;;17.50;90.00;;;;;;5105790;27;45457;-77
2022/04/06 01:30:05;;;;;;;3.47;1.00;;;17.50;90.40;;;;;;5109068;27;45168;-78
2022/04/06 01:32:35;;;;;;;2.47;0.93;;;17.50;90.00;;;;;;5105150;27;45183;-77
2022/04/06 01:35:03;;;;;;;3.60;1.23;;;17.50;90.50;;;;;;5108570;27;45266;-78
2022/04/06 01:37:31;;;;;;;2.30;0.80;;;17.50;89.70;;;;;;5102347;27;45257;-78
2022/04/06 01:39:59;;;;;;;1.50;1.05;;;17.50;87.60;;;;;;5107146;27;45389;-77
2022/04/06 01:42:26;;;;;;;2.38;0.90;;;17.40;88.50;;;;;;5110231;27;47093;-78
2022/04/06 01:44:53;;;;;;;1.83;1.00;;;17.40;90.00;;;;;;5110504;27;45337;-77
2022/04/06 01:47:21;;;;;;;2.00;1.10;;;17.40;89.20;;;;;;5107074;27;46692;-78
2022/04/06 01:52:33;;;;;;;1.17;0.88;;;17.40;88.90;;;;;;5100126;27;45654;-77
2022/04/06 01:55:04;;;;;;;1.55;0.90;;;17.40;88.00;;;;;;5108410;27;45408;-77
2022/04/06 01:57:32;;;;;;;2.10;1.02;;;17.40;87.20;;;;;;5106576;27;45264;-77
2022/04/06 02:00:00;;;;;;;2.70;0.95;;;17.40;85.70;;;;;;5106775;27;45409;-77
2022/04/06 02:02:30;;;;;;;1.15;0.70;;;17.40;87.10;;;;;;5101150;27;47941;-78
2022/04/06 02:04:58;;;;;;;2.65;1.00;;;17.40;87.30;;;;;;5109327;27;45637;-78
2022/04/06 02:07:25;;;;;;;2.97;0.95;;;17.40;89.60;;;;;;5108821;27;45508;-77
2022/04/06 02:09:52;;;;;;;1.73;0.90;;;17.40;88.50;;;;;;5107725;27;45459;-77
2022/04/06 02:12:21;;;;;;;4.03;0.95;;;17.40;89.70;;;;;;5106211;27;47842;-77
2022/04/06 02:14:47;;;;;;;1.73;0.80;;;17.40;88.90;;;;;;5106866;27;45188;-77
2022/04/06 02:17:14;;;;;;;2.50;0.98;;;17.50;89.10;;;;;;5104551;27;45247;-78
2022/04/06 02:19:41;;;;;;;4.82;0.80;;;17.50;89.20;;;;;;5107226;27;45816;-77
2022/04/06 02:22:09;;;;;;;1.58;0.80;;;17.50;89.00;;;;;;5108604;27;47892;-78
2022/04/06 02:24:37;;;;;;;1.15;0.70;;;17.50;88.80;;;;;;5107601;27;45732;-78
2022/04/06 02:27:06;;;;;;;1.95;0.98;;;17.50;88.90;;;;;;5108116;27;45199;-77
2022/04/06 02:29:34;;;;;;;1.52;0.73;;;17.50;88.20;;;;;;5106565;27;46540;-77
2022/04/06 02:32:01;;;;;;;0.82;0.65;;;17.30;88.30;;;;;;5107068;27;47111;-77
2022/04/06 02:34:28;;;;;;;2.42;0.90;;;17.40;87.60;;;;;;5105948;27;45240;-77
2022/04/06 02:36:55;;;;;;;1.45;0.82;;;17.40;88.20;;;;;;5097787;27;45308;-77
2022/04/06 02:39:22;;;;;;;1.10;0.70;;;17.40;88.00;;;;;;5105968;27;45484;-77
2022/04/06 02:41:49;;;;;;;1.08;0.60;;;17.40;87.90;;;;;;5108655;27;45251;-78
2022/04/06 02:44:16;;;;;;;1.48;0.85;;;17.40;85.60;;;;;;5108962;27;45235;-77
2022/04/06 02:46:44;;;;;;;2.25;0.82;;;17.40;86.90;;;;;;5107529;27;45284;-78
2022/04/06 02:49:11;;;;;;;2.33;1.00;;;17.40;85.90;;;;;;5107928;27;45491;-77
2022/04/06 02:51:38;;;;;;;2.67;1.00;;;17.40;86.20;;;;;;5106947;27;46087;-77
2022/04/06 02:54:05;;;;;;;2.00;0.80;;;17.40;86.10;;;;;;5103994;27;45277;-78
2022/04/06 02:56:32;;;;;;;3.72;0.82;;;17.40;85.60;;;;;;5112020;27;45281;-77
2022/04/06 02:59:00;;;;;;;2.53;1.20;;;17.40;86.50;;;;;;5105579;27;45338;-77
2022/04/06 03:01:28;;;;;;;1.50;0.60;;;17.40;87.80;;;;;;5104313;27;46293;-78
2022/04/06 03:03:56;;;;;;;3.22;1.10;;;17.40;88.70;;;;;;5106110;27;45257;-78
2022/04/06 03:06:23;;;;;;;1.17;0.88;;;17.40;87.50;;;;;;5107443;27;45222;-78
2022/04/06 03:08:50;;;;;;;1.13;0.70;;;17.50;87.30;;;;;;5107908;27;45378;-77
2022/04/06 03:11:17;;;;;;;1.95;0.90;;;17.40;87.10;;;;;;5104685;27;48135;-77
2022/04/06 03:13:43;;;;;;;1.80;0.60;;;17.50;87.50;;;;;;5104276;27;45352;-77
2022/04/06 03:16:10;;;;;;;3.70;0.88;;;17.50;86.70;;;;;;5096656;27;45616;-77
2022/04/06 03:18:37;;;;;;;2.13;0.70;;;17.40;87.00;;;;;;5106202;27;45258;-77
2022/04/06 03:21:05;;;;;;;2.55;0.98;;;17.40;88.00;;;;;;5105428;27;47391;-77
2022/04/06 03:23:32;;;;;;;1.40;0.80;;;17.40;87.60;;;;;;5098007;27;45214;-77
2022/04/06 03:25:59;;;;;;;2.50;0.90;;;17.40;87.00;;;;;;5108530;27;45319;-77
2022/04/06 03:28:26;;;;;;;2.17;1.02;;;17.40;88.40;;;;;;5101765;27;45492;-76
2022/04/06 03:30:53;;;;;;;3.00;1.05;;;17.30;86.70;;;;;;5105403;27;48336;-77
2022/04/06 03:33:19;;;;;;;2.03;1.20;;;17.30;86.40;;;;;;5105133;27;45250;-77
2022/04/06 03:35:46;;;;;;;2.08;0.90;;;17.30;87.40;;;;;;5106729;27;45416;-76
2022/04/06 03:38:14;;;;;;;2.20;0.93;;;17.30;86.40;;;;;;5106456;27;45087;-77
2022/04/06 03:40:41;;;;;;;2.15;1.00;;;17.30;86.10;;;;;;5105589;27;45549;-77
2022/04/06 03:43:08;;;;;;;2.60;0.90;;;17.30;86.60;;;;;;5103134;27;45242;-77
2022/04/06 03:45:35;;;;;;;2.05;0.90;;;17.30;85.70;;;;;;5101893;27;45289;-77
2022/04/06 03:48:02;;;;;;;3.75;0.95;;;17.30;85.00;;;;;;5102560;27;45300;-77
2022/04/06 03:50:28;;;;;;;1.13;0.63;;;17.30;84.60;;;;;;5098600;27;46181;-77
2022/04/06 03:52:55;;;;;;;1.95;0.80;;;17.30;86.40;;;;;;5101146;27;45594;-77
2022/04/06 03:55:23;;;;;;;1.92;0.90;;;17.30;87.00;;;;;;5103304;27;45332;-77
2022/04/06 03:57:50;;;;;;;1.05;0.73;;;17.30;85.00;;;;;;5105990;27;45481;-77
2022/04/06 04:00:18;;;;;;;3.40;0.90;;;17.30;85.60;;;;;;5102848;27;47384;-76
2022/04/06 04:02:45;;;;;;;2.10;1.00;;;17.30;85.80;;;;;;5105376;27;45402;-77
2022/04/06 04:05:12;;;;;;;3.72;1.02;;;17.30;85.30;;;;;;5104426;27;45232;-77
2022/04/06 04:07:39;;;;;;;1.17;0.73;;;17.20;84.70;;;;;;5104738;27;45590;-77
2022/04/06 04:10:08;;;;;;;1.83;0.75;;;17.30;84.10;;;;;;5105910;27;46665;-77
2022/04/06 04:12:37;;;;;;;2.00;1.15;;;17.30;83.60;;;;;;5099169;27;45199;-78
2022/04/06 04:15:04;;;;;;;2.10;0.70;;;17.30;83.10;;;;;;5105291;27;45183;-77
2022/04/06 04:17:31;;;;;;;1.80;0.75;;;17.30;82.90;;;;;;5104435;27;45516;-78
2022/04/06 04:19:58;;;;;;;2.95;1.00;;;17.30;84.60;;;;;;5104111;27;47883;-77
2022/04/06 04:22:25;;;;;;;3.65;1.05;;;17.30;85.20;;;;;;5106038;27;45298;-77
2022/04/06 04:24:51;;;;;;;2.13;0.82;;;17.30;86.40;;;;;;5104298;27;45462;-77
2022/04/06 04:27:18;;;;;;;1.85;0.70;;;17.30;85.60;;;;;;5111164;27;45511;-77
2022/04/06 04:29:47;;;;;;;1.67;0.98;;;17.30;85.40;;;;;;5107815;27;45390;-77
2022/04/06 04:32:14;;;;;;;1.90;0.80;;;17.30;84.80;;;;;;5106018;27;45274;-77
2022/04/06 04:34:41;;;;;;;2.15;0.93;;;17.30;85.30;;;;;;5104865;27;45349;-77
2022/04/06 04:37:08;;;;;;;2.20;0.95;;;17.30;85.40;;;;;;5102826;27;45546;-76
2022/04/06 04:39:35;;;;;;;2.72;1.10;;;17.30;85.90;;;;;;5107618;27;46512;-77
2022/04/06 04:42:03;;;;;;;1.60;0.77;;;17.40;78.50;;;;;;5109310;27;45566;-77
2022/04/06 04:44:29;;;;;;;2.78;1.00;;;17.40;84.00;;;;;;5108276;27;45700;-77
2022/04/06 04:46:58;;;;;;;0.70;0.65;;;17.40;82.80;;;;;;5108689;27;46365;-77
2022/04/06 04:49:25;;;;;;;1.63;0.80;;;17.50;84.10;;;;;;5098711;27;48309;-78
2022/04/06 04:51:52;;;;;;;2.30;0.85;;;17.50;83.50;;;;;;5104189;27;45560;-78
2022/04/06 04:54:23;;;;;;;1.65;0.70;;;17.50;83.70;;;;;;5109016;27;45235;-77
2022/04/06 04:56:51;;;;;;;4.25;0.70;;;17.50;85.10;;;;;;5096721;27;45340;-77
2022/04/06 04:59:18;;;;;;;2.65;0.80;;;17.50;87.00;;;;;;5103365;27;45731;-78
2022/04/06 05:01:45;;;;;;;1.27;0.70;;;17.50;87.00;;;;;;5103691;27;45886;-78
2022/04/06 05:04:13;;;;;;;3.92;1.05;;;17.50;87.30;;;;;;5102821;27;45284;-78
2022/04/06 05:06:40;;;;;;;3.28;0.80;;;17.50;88.40;;;;;;5108714;27;45177;-78
2022/04/06 05:09:07;;;;;;;0.98;0.70;;;17.50;88.40;;;;;;5106280;27;47412;-78
2022/04/06 05:11:34;;;;;;;2.58;1.05;;;17.50;88.50;;;;;;5106410;27;45168;-78
2022/04/06 05:14:01;;;;;;;1.35;0.68;;;17.50;88.00;;;;;;5107809;27;45134;-78
2022/04/06 05:16:27;;;;;;;2.92;0.95;;;17.50;87.90;;;;;;5109171;27;45511;-78
2022/04/06 05:18:54;;;;;;;2.10;0.70;;;17.50;87.70;;;;;;5106464;27;45238;-78
2022/04/06 05:21:23;;;;;;;1.38;0.70;;;17.50;87.40;;;;;;5109772;27;46188;-78
2022/04/06 05:23:50;;;;;;;2.17;0.90;;;17.50;87.10;;;;;;5106691;27;45300;-77
2022/04/06 05:26:17;;;;;;;2.35;0.88;;;17.50;86.40;;;;;;5109016;27;45420;-78
2022/04/06 05:28:43;;;;;;;2.67;0.80;;;17.40;86.70;;;;;;5109805;27;45475;-78
2022/04/06 05:31:10;;;;;;;2.33;0.90;;;17.50;85.90;;;;;;5108362;27;45174;-78
2022/04/06 05:33:37;;;;;;;3.28;0.55;;;17.50;84.10;;;;;;5108832;27;45254;-78
2022/04/06 05:36:04;;;;;;;5.90;0.88;;;17.50;86.20;;;;;;5108741;27;45627;-78
2022/04/06 05:38:34;;;;;;;2.38;0.68;;;17.50;85.20;;;;;;5109421;27;46641;-78
2022/04/06 05:41:02;;;;;;;1.95;0.68;;;17.50;84.90;;;;;;5104323;27;45806;-77
2022/04/06 05:43:29;;;;;;;1.05;0.70;;;17.50;85.20;;;;;;5105914;27;45577;-77
2022/04/06 05:45:56;;;;;;;3.10;0.70;;;17.50;85.60;;;;;;5101724;27;45138;-77
2022/04/06 05:48:22;;;;;;;2.05;0.93;;;17.50;86.80;;;;;;5107650;27;48352;-77
2022/04/06 05:50:49;;;;;;;1.80;0.73;;;17.50;87.20;;;;;;5106797;27;45664;-77
2022/04/06 05:53:16;;;;;;;1.83;0.80;;;17.40;86.80;;;;;;5108696;27;45240;-77
2022/04/06 05:55:47;;;;;;;1.75;0.80;;;17.50;87.00;;;;;;5108432;27;45353;-77
2022/04/06 05:58:14;;;;;;;1.02;0.68;;;17.40;86.50;;;;;;5107628;27;47306;-77
2022/04/06 06:00:41;;;;;;;0.73;0.55;;;17.40;86.60;;;;;;5106397;27;45232;-78
2022/04/06 06:03:08;;;;;;;1.60;0.70;;;17.40;86.20;;;;;;5108893;27;45487;-78
2022/04/06 06:05:35;;;;;;;2.55;0.77;;;17.40;86.90;;;;;;5108631;27;45283;-77
2022/04/06 06:08:02;;;;;;;0.80;0.57;;;17.50;86.90;;;;;;5101053;27;46459;-77
2022/04/06 06:10:29;;;;;;;1.55;0.50;;;17.40;87.60;;;;;;5105501;27;45493;-77
2022/04/06 06:12:58;;;;;;;2.28;0.75;;;17.40;88.10;;;;;;5108026;27;45488;-78
2022/04/06 06:15:24;;;;;;;2.33;0.73;;;17.40;87.40;;;;;;5103055;27;45398;-78
2022/04/06 06:17:52;;;;;;;0.90;0.57;;;17.40;88.00;;;;;;5108165;27;45788;-78
2022/04/06 06:20:20;;;;;;;0.90;0.73;;;17.40;88.30;;;;;;5088228;27;45232;-78
2022/04/06 06:22:47;;;;;;;1.70;0.90;;;17.40;87.60;;;;;;5107423;27;45225;-78
2022/04/06 06:25:13;;;;;;;1.48;0.70;;;17.40;87.70;;;;;;5110137;27;45543;-78
2022/04/06 06:27:41;;;;;;;2.05;0.70;;;17.40;87.30;;;;;;5103104;27;46283;-78
2022/04/06 06:30:12;;;;;;;2.88;0.60;;;17.40;87.10;;;;;;5105576;27;45648;-78
2022/04/06 06:32:39;;;;;;;1.65;0.60;;;17.40;86.20;;;;;;5106958;27;45301;-78
2022/04/06 06:35:08;;;;;;;0.57;0.40;;;17.40;85.70;;;;;;5109214;27;45451;-77
2022/04/06 06:37:34;;;;;;;1.98;0.50;;;17.40;86.20;;;;;;5109331;27;46345;-78
2022/04/06 06:40:01;;;;;;;0.93;0.50;;;17.40;84.90;;;;;;5101883;27;45227;-78
2022/04/06 06:42:28;;;;;;;4.65;0.77;;;17.50;85.90;;;;;;5105606;27;45242;-78
2022/04/06 06:44:55;;;;;;;0.80;0.50;;;17.50;84.70;;;;;;5109009;27;45325;-77
2022/04/06 06:47:23;;;;;;;1.00;0.52;;;17.50;85.40;;;;;;5104097;27;45473;-78
2022/04/06 06:49:49;;;;;;;1.80;0.50;;;17.50;84.70;;;;;;5105854;27;45557;-78
2022/04/06 06:52:17;;;;;;;1.90;0.60;;;17.40;85.00;;;;;;5107896;27;45156;-78
2022/04/06 06:54:43;;;;;;;0.85;0.70;;;17.40;85.20;;;;;;5106703;27;45182;-78
2022/04/06 06:57:11;;;;;;;3.03;0.70;;;17.40;85.60;;;;;;5105046;27;46182;-78
2022/04/06 06:59:38;;;;;;;1.83;0.60;;;17.40;85.70;;;;;;5106641;27;45263;-78
2022/04/06 07:02:05;;;;;;;2.70;0.60;;;17.40;85.40;;;;;;5107403;27;45211;-78
2022/04/06 07:04:33;;;;;;;0.98;0.60;;;17.40;84.60;;;;;;5106575;27;45147;-78
2022/04/06 07:07:00;;;;;;;2.25;0.63;;;17.40;84.20;;;;;;5102452;27;46371;-78
2022/04/06 07:09:27;;;;;;;2.40;0.82;;;17.40;84.60;;;;;;5105450;27;47176;-78
2022/04/06 07:11:54;;;;;;;2.05;0.70;;;17.40;83.00;;;;;;5107173;27;45306;-78
2022/04/06 07:14:21;;;;;;;2.17;0.60;;;17.40;83.00;;;;;;5107995;27;45362;-78
2022/04/06 07:16:48;;;;;;;2.25;0.82;;;17.40;83.40;;;;;;5108926;27;45096;-78
2022/04/06 07:19:15;;;;;;;0.73;0.60;;;17.40;83.10;;;;;;5096381;27;45190;-78
2022/04/06 07:21:43;;;;;;;0.98;0.68;;;17.40;84.00;;;;;;5105608;27;45450;-78
2022/04/06 07:24:10;;;;;;;1.50;0.60;;;17.40;83.00;;;;;;5108871;27;45304;-78
2022/04/06 07:26:36;;;;;;;1.25;0.70;;;17.40;83.70;;;;;;5107499;27;46451;-78
2022/04/06 07:29:03;;;;;;;3.25;0.90;;;17.50;82.40;;;;;;5105849;27;45424;-77
2022/04/06 07:31:30;;;;;;;1.23;0.60;;;17.50;82.90;;;;;;5111886;27;45257;-78
2022/04/06 07:33:57;;;;;;;1.35;0.60;;;17.50;83.60;;;;;;5106109;27;45334;-78
2022/04/06 07:36:24;;;;;;;1.23;0.57;;;17.40;83.50;;;;;;5103113;27;48022;-77
2022/04/06 07:38:52;;;;;;;2.70;0.80;;;17.50;83.80;;;;;;5102995;27;45644;-78
2022/04/06 07:41:19;;;;;;;1.15;0.55;;;17.50;82.70;;;;;;5109008;27;45147;-78
2022/04/06 07:43:46;;;;;;;0.80;0.40;;;17.50;82.80;;;;;;5105043;27;45432;-77
2022/04/06 07:46:13;;;;;;;0.68;0.47;;;17.50;82.80;;;;;;5107641;27;48153;-78
2022/04/06 07:48:41;;;;;;;0.85;0.57;;;17.40;83.10;;;;;;5105801;27;45273;-78
2022/04/06 07:51:08;;;;;;;2.40;0.77;;;17.40;82.50;;;;;;5108080;27;45213;-78
2022/04/06 07:53:35;;;;;;;2.33;0.63;;;17.40;81.60;;;;;;5104677;27;45738;-78
2022/04/06 07:56:03;;;;;;;2.03;0.60;;;17.50;79.80;;;;;;5107538;27;47094;-77
2022/04/06 07:58:30;;;;;;;1.13;0.50;;;17.50;78.90;;;;;;5105384;27;45528;-77
2022/04/06 08:00:57;;;;;;;0.82;0.40;;;17.50;79.40;;;;;;5103752;27;45345;-77
2022/04/06 08:03:24;;;;;;;1.67;0.45;;;17.50;79.00;;;;;;5103162;27;45491;-77
2022/04/06 08:05:51;;;;;;;0.52;0.43;;;17.50;79.30;;;;;;5104088;27;46277;-77
2022/04/06 08:08:17;;;;;;;2.30;0.70;;;17.50;79.50;;;;;;5105188;27;45431;-77
2022/04/06 08:10:44;;;;;;;0.95;0.55;;;17.50;78.20;;;;;;5107060;27;46318;-78
2022/04/06 08:13:12;;;;;;;0.68;0.50;;;17.50;80.50;;;;;;5102219;27;45172;-78
2022/04/06 08:15:39;;;;;;;0.75;0.35;;;17.50;79.30;;;;;;5107595;27;45553;-77
2022/04/06 08:18:07;;;;;;;2.05;0.57;;;17.60;78.40;;;;;;5106626;27;45532;-77
2022/04/06 08:20:34;;;;;;;1.58;0.50;;;17.60;79.80;;;;;;5100186;27;45237;-77
2022/04/06 08:23:01;;;;;;;4.03;0.70;;;17.60;77.00;;;;;;5107967;27;46016;-78
2022/04/06 08:25:28;;;;;;;0.98;0.50;;;17.60;78.70;;;;;;5105987;27;45282;-77
2022/04/06 08:27:55;;;;;;;0.95;0.50;;;17.60;80.10;;;;;;5106067;27;45677;-77
2022/04/06 08:30:23;;;;;;;1.23;0.38;;;17.60;79.20;;;;;;5107133;27;45181;-77
2022/04/06 08:32:51;;;;;;;1.27;0.40;;;17.60;79.00;;;;;;5105454;27;45325;-77
2022/04/06 08:35:18;;;;;;;1.48;0.60;;;17.60;77.90;;;;;;5098227;27;46465;-78
2022/04/06 08:37:45;;;;;;;1.05;0.60;;;17.60;77.80;;;;;;5107307;27;45265;-78
2022/04/06 08:40:13;;;;;;;4.22;0.70;;;17.60;77.40;;;;;;5103076;27;45096;-78
2022/04/06 08:42:40;;;;;;;1.27;0.60;;;17.60;78.90;;;;;;5106855;27;45246;-78
2022/04/06 08:45:09;;;;;;;1.70;0.50;;;17.60;77.40;;;;;;5099636;27;46976;-78
2022/04/06 08:47:37;;;;;;;2.53;0.60;;;17.60;78.30;;;;;;5105525;27;45263;-78
2022/04/06 08:50:06;;;;;;;1.10;0.40;;;17.60;77.10;;;;;;5095298;27;45116;-78
2022/04/06 08:52:33;;;;;;;1.15;0.40;;;17.60;77.30;;;;;;5105064;27;45674;-78
2022/04/06 08:55:01;;;;;;;0.45;0.40;;;17.60;77.60;;;;;;5106690;27;46582;-78
2022/04/06 08:57:28;;;;;;;0.55;0.32;;;17.60;77.30;;;;;;5106469;27;46017;-78
2022/04/06 08:59:54;;;;;;;1.08;0.55;;;17.60;77.80;;;;;;5101418;27;45281;-78
2022/04/06 09:02:23;;;;;;;1.15;0.57;;;17.60;78.00;;;;;;5106496;27;45167;-78
2022/04/06 09:04:52;;;;;;;1.17;0.50;;;17.60;77.30;;;;;;5104091;27;46650;-78
2022/04/06 09:07:21;;;;;;;1.05;0.52;;;17.60;77.60;;;;;;5102333;27;45241;-78
2022/04/06 09:09:52;;;;;;;0.50;0.47;;;17.60;78.70;;;;;;5107054;27;45244;-78
2022/04/06 09:12:21;;;;;;;1.65;0.60;;;17.60;78.00;;;;;;5104707;27;45229;-78
2022/04/06 09:14:48;;;;;;;0.90;0.47;;;17.60;78.20;;;;;;5111173;27;46004;-78
2022/04/06 09:17:20;;;;;;;2.40;0.40;;;17.60;78.40;;;;;;5101606;27;45241;-78
2022/04/06 09:19:49;;;;;;;0.70;0.40;;;17.60;77.90;;;;;;5101207;27;45252;-78
2022/04/06 09:22:18;;;;;;;1.35;0.70;;;17.60;77.60;;;;;;5105675;27;45134;-78
2022/04/06 09:24:44;;;;;;;1.30;0.70;;;17.60;77.20;;;;;;5109036;27;47344;-78
2022/04/06 09:27:11;;;;;;;0.95;0.40;;;17.60;78.20;;;;;;5110834;27;45315;-78
2022/04/06 09:29:39;;;;;;;3.38;0.68;;;17.60;77.00;;;;;;5105213;27;45284;-78
2022/04/06 09:32:10;;;;;;;0.90;0.32;;;17.60;76.70;;;;;;5106299;27;45209;-78
2022/04/06 09:34:37;;;;;;;1.05;0.40;;;17.60;76.40;;;;;;5107560;27;47147;-78
2022/04/06 09:37:24;;;;;;;1.00;0.40;;;17.60;76.20;;;;;;5108750;27;45237;-78
2022/04/06 09:39:51;;;;;;;1.40;0.40;;;17.60;76.20;;;;;;5101186;27;45173;-78
2022/04/06 09:42:22;;;;;;;1.42;0.57;;;17.50;76.10;;;;;;5108886;27;45234;-78
2022/04/06 09:47:40;;;;;;;4.22;0.60;;;17.50;75.40;;;;;;5104337;27;45274;-78
2022/04/06 09:50:13;;;;;;;1.20;0.50;;;17.60;76.10;;;;;;5108749;27;45229;-78
2022/04/06 09:52:41;;;;;;;1.08;0.50;;;17.50;75.60;;;;;;5107171;27;45104;-78
2022/04/06 09:55:10;;;;;;;1.10;0.30;;;17.50;75.80;;;;;;5103000;27;46305;-78
2022/04/06 09:57:42;;;;;;;0.85;0.52;;;17.60;76.20;;;;;;5108402;27;45187;-78
2022/04/06 10:00:12;;;;;;;0.55;0.40;;;17.60;76.30;;;;;;5101133;27;46180;-78
2022/04/06 10:02:41;;;;;;;1.48;0.43;;;17.60;77.60;;;;;;5103831;27;45268;-78
2022/04/06 10:05:11;;;;;;;1.13;0.55;;;17.60;77.50;;;;;;5101217;27;48219;-78
2022/04/06 10:07:41;;;;;;;0.90;0.40;;;17.60;76.70;;;;;;5103825;27;45262;-78
2022/04/06 10:10:08;;;;;;;1.88;0.40;;;17.60;76.10;;;;;;5101692;27;45573;-78
2022/04/06 10:12:35;;;;;;;1.65;0.63;;;17.60;76.80;;;;;;5106855;27;45273;-78
2022/04/06 10:15:05;;;;;;;2.58;0.40;;;17.60;76.20;;;;;;5109994;27;45279;-78
2022/04/06 10:17:33;;;;;;;0.77;0.20;;;17.60;76.10;;;;;;5103173;27;45270;-77
2022/04/06 10:20:07;;;;;;;1.13;0.52;;;17.60;76.20;;;;;;5107380;27;45233;-78
2022/04/06 10:22:44;;;;;;;0.77;0.40;;;17.50;76.60;;;;;;5103324;27;45364;-78
2022/04/06 10:25:18;;;;;;;1.02;0.60;;;17.50;76.70;;;;;;5109791;27;45329;-78
2022/04/06 10:27:48;;;;;;;1.38;0.55;;;17.50;76.40;;;;;;5104341;27;45362;-78
2022/04/06 10:30:16;;;;;;;0.50;0.20;;;17.50;76.10;;;;;;5107596;27;45337;-78
2022/04/06 10:32:45;;;;;;;1.55;0.60;;;17.40;75.90;;;;;;5103281;27;45326;-78
2022/04/06 10:35:26;;;;;;;0.88;0.40;;;17.40;73.80;;;;;;5107913;27;46629;-78
2022/04/06 10:38:16;;;;;;;0.80;0.40;;;17.50;74.30;;;;;;5108712;27;45626;-78
2022/04/06 10:40:59;;;;;;;0.82;0.65;;;17.50;74.30;;;;;;5104036;27;45421;-78
2022/04/06 10:43:55;;;;;;;0.85;0.52;;;17.50;76.10;;;;;;5084584;27;45474;-78
2022/04/06 10:46:38;;;;;;;1.10;0.40;;;17.50;76.00;;;;;;5101677;27;47346;-78
2022/04/06 10:49:15;;;;;;;0.40;0.20;;;17.50;75.60;;;;;;5107884;27;45324;-78
2022/04/06 10:51:44;;;;;;;1.02;0.40;;;17.50;75.60;;;;;;5105790;27;45322;-78
2022/04/06 10:54:40;;;;;;;2.88;0.45;;;17.50;76.10;;;;;;5108333;27;45212;-78
2022/04/06 10:57:07;;;;;;;1.77;0.30;;;17.50;76.10;;;;;;5108696;27;47882;-78
2022/04/06 10:59:34;;;;;;;1.85;0.40;;;17.50;75.90;;;;;;5105641;27;45286;-78
2022/04/06 11:02:18;;;;;;;0.82;0.30;;;17.50;74.80;;;;;;5100408;27;45412;-78
2022/04/06 11:04:46;;;;;;;0.80;0.45;;;17.50;75.50;;;;;;5102011;27;45365;-78
2022/04/06 11:07:15;;;;;;;0.93;0.40;;;17.60;76.20;;;;;;5104164;27;46034;-78
2022/04/06 11:12:29;;;;;;;2.05;0.40;;;17.50;75.20;;;;;;5096655;27;46003;-77
2022/04/06 11:15:21;;;;;;;1.48;0.30;;;17.50;75.60;;;;;;5102743;27;45473;-77
2022/04/06 11:17:48;;;;;;;2.30;0.40;;;17.50;75.20;;;;;;5102322;27;45529;-77
2022/04/06 11:20:17;;;;;;;0.35;0.25;;;17.50;75.10;;;;;;5098757;27;45393;-77
2022/04/06 11:22:50;;;;;;;2.90;0.63;;;17.50;75.00;;;;;;5103900;27;45401;-77
2022/04/06 11:25:20;;;;;;;0.63;0.40;;;17.50;74.50;;;;;;5107110;27;45612;-77
2022/04/06 11:27:48;;;;;;;1.15;0.47;;;17.50;74.90;;;;;;5100340;27;47295;-78
2022/04/06 11:30:17;;;;;;;2.85;0.50;;;17.50;74.20;;;;;;5103455;27;45384;-78
2022/04/06 11:32:53;;;;;;;4.22;0.40;;;17.50;74.90;;;;;;5106283;27;45262;-77
2022/04/06 11:35:20;;;;;;;1.23;0.35;;;17.50;74.70;;;;;;5099641;27;45349;-77
2022/04/06 11:37:48;;;;;;;0.28;0.20;;;17.50;73.10;;;;;;5100726;27;47443;-77
2022/04/06 11:40:17;;;;;;;0.47;0.40;;;17.50;74.10;;;;;;5102453;27;45519;-77
2022/04/06 11:42:49;;;;;;;23.70;2.70;;;17.50;73.80;;;;;;5100509;27;45365;-79
2022/04/06 11:45:21;;;;;;;6.63;0.68;;;17.60;74.90;;;;;;5107616;27;45289;-77
2022/04/06 11:47:53;;;;;;;4.88;0.73;;;17.60;76.80;;;;;;5100479;27;45976;-77
2022/04/06 11:50:20;;;;;;;2.33;0.75;;;17.50;76.20;;;;;;5096537;27;45276;-77
2022/04/06 11:52:47;;;;;;;2.15;0.77;;;17.50;76.10;;;;;;5098097;27;45544;-77
2022/04/06 11:55:14;;;;;;;5.93;0.85;;;17.50;76.10;;;;;;5098485;27;46088;-77
2022/04/06 11:57:42;;;;;;;6.07;0.57;;;17.50;76.10;;;;;;5099279;27;46381;-77
2022/04/06 12:00:12;;;;;;;2.47;0.55;;;17.50;76.10;;;;;;5100658;27;45253;-77
2022/04/06 12:02:52;;;;;;;3.03;0.70;;;17.50;75.20;;;;;;5105408;27;45309;-77
2022/04/06 12:05:20;;;;;;;2.35;1.13;;;17.50;75.40;;;;;;5106221;27;45124;-77
2022/04/06 12:07:47;;;;;;;2.33;0.60;;;17.50;75.60;;;;;;5107151;27;45119;-77
2022/04/06 12:10:15;;;;;;;1.98;0.60;;;17.50;75.10;;;;;;5105962;27;45599;-77
2022/04/06 12:12:42;;;;;;;2.78;0.60;;;17.50;73.90;;;;;;5108495;27;45209;-77
2022/04/06 12:15:11;;;;;;;3.70;0.60;;;17.50;74.20;;;;;;5107164;27;45218;-77
2022/04/06 12:17:40;;;;;;;3.08;0.60;;;17.50;73.30;;;;;;5105866;27;48173;-77
2022/04/06 12:20:27;;;;;;;1.55;0.65;;;17.50;73.30;;;;;;5104760;27;45593;-77
2022/04/06 12:23:01;;;;;;;3.10;0.70;;;17.50;73.10;;;;;;5107444;27;45330;-77
2022/04/06 12:25:29;;;;;;;1.80;0.57;;;17.50;72.90;;;;;;5096672;27;45238;-78
2022/04/06 12:28:11;;;;;;;5.32;0.55;;;17.50;73.00;;;;;;5103890;27;46590;-77
2022/04/06 12:30:52;;;;;;;1.17;0.40;;;17.50;73.10;;;;;;5100340;27;45206;-78
2022/04/06 12:33:36;;;;;;;3.55;0.47;;;17.60;72.40;;;;;;5098324;27;45223;-78
2022/04/06 12:36:08;;;;;;;1.42;0.50;;;17.60;71.20;;;;;;5103843;27;46074;-78
2022/04/06 12:38:35;;;;;;;1.08;0.50;;;17.60;71.00;;;;;;5101681;27;46085;-77
2022/04/06 12:41:07;;;;;;;3.13;0.65;;;17.60;70.90;;;;;;5100150;27;45166;-78
2022/04/06 12:43:36;;;;;;;1.30;0.50;;;17.60;70.70;;;;;;5100599;27;45247;-78
2022/04/06 12:46:04;;;;;;;1.05;0.43;;;17.60;71.50;;;;;;5107492;27;45219;-78
2022/04/06 12:48:31;;;;;;;3.20;0.52;;;17.60;71.40;;;;;;5105848;27;45618;-78
2022/04/06 12:50:58;;;;;;;0.47;0.30;;;17.70;71.30;;;;;;5111036;27;45291;-78
2022/04/06 12:53:25;;;;;;;1.15;0.45;;;17.70;71.00;;;;;;5108653;27;45540;-78
2022/04/06 12:56:10;;;;;;;1.33;0.40;;;17.70;71.40;;;;;;5106035;27;45167;-78
2022/04/06 12:58:37;;;;;;;3.38;0.47;;;17.70;72.60;;;;;;5103007;27;45530;-78
2022/04/06 13:01:09;;;;;;;0.82;0.43;;;17.60;72.50;;;;;;5106396;27;45385;-78
2022/04/06 13:03:36;;;;;;;0.43;0.30;;;17.60;72.90;;;;;;5106094;27;45139;-78